createdAt,value
2019-02-19T00:01:49.302Z,9.90
2019-02-19T00:06:53.517Z,10.00
2019-02-19T00:11:57.683Z,10.20
2019-02-19T00:17:01.881Z,10.30
2019-02-19T00:22:06.623Z,10.20
2019-02-19T00:27:10.875Z,10.40
2019-02-19T00:32:15.053Z,10.70
2019-02-19T00:37:19.245Z,10.80
2019-02-19T00:42:23.514Z,10.90
2019-02-19T00:47:27.701Z,10.80
2019-02-19T00:52:31.882Z,11.00
2019-02-19T00:57:36.082Z,11.00
2019-02-19T01:02:40.309Z,10.90
2019-02-19T01:07:44.633Z,10.80
2019-02-19T01:12:48.932Z,10.80
2019-02-19T01:17:53.157Z,10.90
2019-02-19T01:22:57.358Z,11.00
2019-02-19T01:28:01.540Z,11.10
2019-02-19T01:33:05.776Z,11.10
2019-02-19T01:38:09.997Z,11.20
2019-02-19T01:43:14.447Z,11.10
2019-02-19T01:48:18.724Z,11.10
2019-02-19T01:53:22.910Z,10.90
2019-02-19T01:58:27.088Z,10.80
2019-02-19T02:03:31.282Z,10.70
2019-02-19T02:08:35.538Z,10.60
2019-02-19T02:13:39.733Z,10.70
2019-02-19T02:18:43.946Z,10.50
2019-02-19T02:23:48.150Z,10.40
2019-02-19T02:28:52.440Z,10.40
2019-02-19T02:33:56.609Z,10.40
2019-02-19T02:39:00.807Z,10.30
2019-02-19T02:44:04.979Z,10.30
2019-02-19T02:49:09.184Z,10.10
2019-02-19T02:54:13.367Z,9.90
2019-02-19T02:59:17.540Z,9.80
2019-02-19T03:04:21.799Z,9.80
2019-02-19T03:09:26.050Z,9.90
2019-02-19T03:14:30.355Z,10.10
2019-02-19T03:19:34.534Z,10.30
2019-02-19T03:24:38.742Z,10.40
2019-02-19T03:29:42.944Z,10.50
2019-02-19T03:34:47.124Z,10.50
2019-02-19T03:39:51.336Z,10.40
2019-02-19T03:44:55.548Z,10.30
2019-02-19T03:49:59.740Z,10.20
2019-02-19T03:55:04.155Z,10.00
2019-02-19T04:00:08.649Z,9.90
2019-02-19T04:05:12.823Z,9.90
2019-02-19T04:10:17.026Z,9.90
2019-02-19T04:15:21.290Z,9.80
2019-02-19T04:20:25.564Z,9.80
2019-02-19T04:25:29.752Z,9.70
2019-02-19T04:30:33.944Z,9.90
2019-02-19T04:35:38.144Z,10.00
2019-02-19T04:40:42.375Z,10.20
2019-02-19T04:45:46.636Z,10.20
2019-02-19T04:50:50.825Z,10.20
2019-02-19T04:55:55.014Z,10.30
2019-02-19T05:00:59.219Z,10.30
2019-02-19T05:06:03.409Z,10.40
2019-02-19T05:11:07.609Z,10.40
2019-02-19T05:16:11.898Z,10.50
2019-02-19T05:21:16.156Z,10.50
2019-02-19T05:26:20.372Z,10.40
2019-02-19T05:31:24.587Z,10.40
2019-02-19T05:36:28.832Z,10.40
2019-02-19T05:41:33.011Z,10.30
2019-02-19T05:46:37.280Z,10.30
2019-02-19T05:51:41.470Z,10.30
2019-02-19T05:56:45.664Z,10.30
2019-02-19T06:01:49.854Z,10.30
2019-02-19T06:06:54.042Z,10.20
2019-02-19T06:11:58.258Z,10.10
2019-02-19T06:17:02.422Z,10.10
2019-02-19T06:22:06.606Z,10.00
2019-02-19T06:27:10.794Z,9.80
2019-02-19T06:32:15.084Z,9.80
2019-02-19T06:37:19.315Z,9.70
2019-02-19T06:42:23.704Z,9.70
2019-02-19T06:47:27.887Z,9.70
2019-02-19T06:52:32.106Z,9.70
2019-02-19T06:57:36.306Z,9.60
2019-02-19T07:02:49.154Z,9.80
2019-02-19T07:07:53.345Z,9.70
2019-02-19T07:12:57.559Z,9.60
2019-02-19T07:18:01.845Z,9.60
2019-02-19T07:23:06.178Z,9.60
2019-02-19T07:28:10.463Z,9.70
2019-02-19T07:33:14.789Z,9.90
2019-02-19T07:38:19.073Z,9.90
2019-02-19T07:43:23.277Z,10.00
2019-02-19T07:48:27.481Z,10.00
2019-02-19T07:53:31.652Z,9.80
2019-02-19T07:58:35.839Z,9.80
2019-02-19T08:03:40.053Z,10.00
2019-02-19T08:08:44.355Z,9.90
2019-02-19T08:13:48.553Z,10.00
2019-02-19T08:18:52.739Z,9.90
2019-02-19T08:23:56.926Z,10.00
2019-02-19T08:29:11.375Z,10.00
2019-02-19T08:34:07.082Z,10.00
2019-02-19T08:39:11.363Z,10.00
2019-02-19T08:44:15.556Z,10.10
2019-02-19T08:49:19.731Z,10.20
2019-02-19T08:54:24.059Z,10.40
2019-02-19T08:59:28.313Z,10.50
2019-02-19T09:04:32.593Z,10.40
2019-02-19T09:09:36.808Z,10.60
2019-02-19T09:14:40.993Z,10.60
2019-02-19T09:19:45.283Z,10.80
2019-02-19T09:24:49.475Z,10.90
2019-02-19T09:34:57.408Z,12.90
2019-02-19T09:40:01.682Z,12.00
2019-02-19T09:45:06.555Z,11.50
2019-02-19T09:50:10.736Z,11.40
2019-02-19T09:55:14.915Z,12.20
2019-02-19T10:00:19.182Z,12.40
2019-02-19T10:05:23.376Z,12.90
2019-02-19T10:10:27.541Z,13.00
2019-02-19T10:15:31.744Z,12.30
2019-02-19T10:20:36.076Z,12.00
2019-02-19T10:25:40.308Z,12.00
2019-02-19T10:30:44.614Z,12.50
2019-02-19T10:35:48.816Z,14.50
2019-02-19T10:40:55.851Z,17.40
2019-02-19T10:46:00.118Z,18.50
2019-02-19T10:51:04.395Z,19.30
2019-02-19T10:56:08.586Z,19.80
2019-02-19T11:01:12.808Z,19.90
2019-02-19T11:11:20.765Z,18.20
2019-02-19T11:16:25.059Z,16.00
2019-02-19T11:21:29.309Z,15.00
2019-02-19T11:26:33.498Z,14.00
2019-02-19T11:31:37.677Z,13.70
2019-02-19T11:36:41.860Z,13.60
2019-02-19T11:41:46.057Z,14.30
2019-02-19T11:51:54.002Z,13.90
2019-02-19T11:56:58.175Z,14.20
2019-02-19T12:02:04.012Z,13.60
2019-02-19T12:07:08.248Z,13.70
2019-02-19T12:12:12.443Z,13.70
2019-02-19T12:17:16.683Z,14.00
2019-02-19T12:27:31.790Z,13.60
2019-02-19T12:32:36.017Z,12.90
2019-02-19T12:37:40.229Z,12.30
2019-02-19T12:42:44.453Z,12.20
2019-02-19T12:47:48.727Z,12.20
2019-02-19T12:52:52.990Z,12.20
2019-02-19T12:57:57.202Z,12.30
2019-02-19T13:03:02.409Z,12.40
2019-02-19T13:08:07.707Z,12.50
2019-02-19T13:13:11.936Z,12.40
2019-02-19T13:18:16.207Z,12.10
2019-02-19T13:23:20.476Z,12.20
2019-02-19T13:28:24.684Z,12.10
2019-02-19T13:33:28.890Z,12.20
2019-02-19T13:38:33.066Z,11.90
2019-02-19T13:43:37.294Z,11.80
2019-02-19T13:48:41.461Z,12.00
2019-02-19T13:53:53.770Z,13.20
2019-02-19T13:58:58.051Z,13.40
2019-02-19T14:04:02.338Z,13.30
2019-02-19T14:09:06.640Z,13.40
2019-02-19T14:14:25.936Z,13.10
2019-02-19T14:19:52.911Z,12.50
2019-02-19T14:25:16.130Z,11.90
2019-02-19T14:30:39.369Z,11.90
2019-02-19T14:36:10.861Z,11.90
2019-02-19T14:41:43.267Z,11.70
2019-02-19T14:47:02.251Z,11.60
2019-02-19T14:52:24.677Z,11.40
2019-02-19T14:58:03.054Z,11.40
2019-02-19T15:03:26.291Z,11.50
2019-02-19T15:08:48.233Z,11.50
2019-02-19T15:14:10.404Z,11.50
2019-02-19T15:19:39.227Z,11.40
2019-02-19T15:25:01.311Z,11.70
2019-02-19T15:30:19.953Z,11.80
2019-02-19T15:35:43.182Z,11.50
2019-02-19T15:41:24.563Z,11.30
2019-02-19T15:46:46.682Z,11.30
2019-02-19T15:52:13.107Z,11.40
2019-02-19T15:57:35.143Z,11.30
2019-02-19T16:02:46.042Z,11.10
2019-02-19T16:08:06.122Z,10.90
2019-02-19T16:13:16.051Z,11.00
2019-02-19T16:18:43.030Z,11.10
2019-02-19T16:24:12.428Z,11.00
2019-02-19T16:29:45.077Z,10.80
2019-02-19T16:35:08.516Z,10.70
2019-02-19T16:40:25.672Z,10.70
2019-02-19T16:45:52.093Z,10.80
2019-02-19T16:51:30.451Z,10.70
2019-02-19T16:56:56.274Z,10.70
2019-02-19T17:02:28.638Z,10.70
2019-02-19T17:07:54.692Z,10.20
2019-02-19T17:13:17.938Z,10.00
2019-02-19T17:18:34.410Z,9.80
2019-02-19T17:23:56.463Z,9.70
2019-02-19T17:29:31.832Z,9.80
2019-02-19T17:35:10.218Z,9.80
2019-02-19T17:40:31.846Z,9.70
2019-02-19T17:46:01.185Z,9.80
2019-02-19T17:51:24.520Z,9.50
2019-02-19T17:56:47.910Z,8.90
2019-02-19T18:02:04.532Z,8.40
2019-02-19T18:07:20.559Z,8.10
2019-02-19T18:12:56.127Z,8.40
2019-02-19T18:18:20.307Z,8.50
2019-02-19T18:23:24.520Z,8.60
2019-02-19T18:28:28.738Z,8.60
2019-02-19T18:33:32.959Z,8.60
2019-02-19T18:38:37.160Z,8.60
2019-02-19T18:43:41.412Z,8.70
2019-02-19T18:48:45.774Z,8.60
2019-02-19T18:53:49.973Z,8.70
2019-02-19T18:58:54.357Z,8.70
2019-02-19T19:03:58.599Z,8.60
2019-02-19T19:09:04.476Z,8.60
2019-02-19T19:14:08.787Z,8.40
2019-02-19T19:19:13.086Z,8.50
2019-02-19T19:24:17.473Z,8.60
2019-02-19T19:29:22.025Z,8.60
2019-02-19T19:34:26.319Z,8.70
2019-02-19T19:39:30.620Z,8.70
2019-02-19T19:44:34.926Z,8.70
2019-02-19T19:49:39.223Z,8.80
2019-02-19T19:54:43.622Z,8.90
2019-02-19T19:59:47.896Z,8.80
2019-02-19T20:04:52.231Z,8.90
2019-02-19T20:09:56.711Z,8.90
2019-02-19T20:15:01.058Z,8.80
2019-02-19T20:20:06.154Z,8.90
2019-02-19T20:25:10.758Z,8.80
2019-02-19T20:30:15.313Z,8.90
2019-02-19T20:35:19.662Z,8.90
2019-02-19T20:40:23.975Z,8.90
2019-02-19T20:45:28.234Z,8.90
2019-02-19T20:50:32.550Z,8.90
2019-02-19T20:55:39.201Z,8.80
2019-02-19T21:00:42.772Z,8.90
2019-02-19T21:05:47.045Z,8.90
2019-02-19T21:10:51.355Z,8.90
2019-02-19T21:15:55.655Z,8.90
2019-02-19T21:20:59.861Z,8.90
2019-02-19T21:26:04.061Z,9.00
2019-02-19T21:31:08.323Z,9.00
2019-02-19T21:36:12.583Z,9.00
2019-02-19T21:41:16.780Z,9.00
2019-02-19T21:46:21.567Z,9.00
2019-02-19T21:51:25.759Z,8.90
2019-02-19T21:56:30.053Z,9.00
2019-02-19T22:01:34.318Z,9.00
2019-02-19T22:06:38.513Z,9.20
2019-02-19T22:11:42.691Z,9.10
2019-02-19T22:16:46.908Z,9.10
2019-02-19T22:22:03.740Z,9.20
2019-02-19T22:27:08.811Z,9.20
2019-02-19T22:32:14.913Z,9.10
2019-02-19T22:37:19.198Z,9.10
2019-02-19T22:42:23.869Z,9.10
2019-02-19T22:47:28.072Z,9.10
2019-02-19T22:52:32.291Z,9.10
2019-02-19T22:57:36.542Z,9.20
2019-02-19T23:02:42.419Z,9.10
2019-02-19T23:07:46.637Z,9.10
2019-02-19T23:12:50.831Z,9.00
2019-02-19T23:17:55.004Z,9.00
2019-02-19T23:22:59.195Z,9.00
2019-02-19T23:28:03.383Z,8.90
2019-02-19T23:33:07.596Z,8.90
2019-02-19T23:38:11.887Z,8.80
2019-02-19T23:43:16.075Z,8.80
2019-02-19T23:48:20.271Z,8.90
2019-02-19T23:53:24.488Z,8.90
2019-02-19T23:58:28.741Z,8.90
